Time;durP1;ratioP1;P1;durP2;ratioP2;P2;SDS_P1;SDS_P2;PMS_P1;PMS_P2;Temp;Humidity;BMP_temperature;BMP_pressure;BME280_temperature;BME280_humidity;BME280_pressure;Samples;Min_cycle;Max_cycle;Signal;HPM_P1;HPM_P2
2021/05/22 00:01:45;;;;;;;1.83;0.55;;;;;;;;;;5054032;28;20430;-80
2021/05/22 00:04:10;;;;;;;0.70;0.55;;;;;;;;;;5054940;28;20033;-80
2021/05/22 00:06:36;;;;;;;0.47;0.43;;;;;;;;;;5056708;28;20025;-79
2021/05/22 00:09:01;;;;;;;1.33;0.73;;;;;;;;;;5055021;28;20361;-79
2021/05/22 00:11:26;;;;;;;0.98;0.50;;;;;;;;;;5052071;28;20669;-78
2021/05/22 00:13:51;;;;;;;1.88;0.50;;;;;;;;;;5048899;28;20052;-79
2021/05/22 00:16:16;;;;;;;0.57;0.40;;;;;;;;;;5055950;28;20099;-81
2021/05/22 00:18:42;;;;;;;0.52;0.50;;;;;;;;;;5049664;28;20036;-79
2021/05/22 00:21:07;;;;;;;0.70;0.50;;;;;;;;;;5031646;28;20561;-80
2021/05/22 00:23:33;;;;;;;0.82;0.50;;;;;;;;;;5057296;28;20029;-79
2021/05/22 00:25:58;;;;;;;0.65;0.50;;;;;;;;;;5048684;28;20025;-79
2021/05/22 00:28:23;;;;;;;1.17;0.60;;;;;;;;;;5047119;28;20447;-79
2021/05/22 00:30:48;;;;;;;0.90;0.50;;;;;;;;;;5051242;28;20082;-79
2021/05/22 00:33:13;;;;;;;0.85;0.60;;;;;;;;;;5062102;28;20769;-79
2021/05/22 00:35:39;;;;;;;3.60;0.65;;;;;;;;;;5048934;28;20051;-79
2021/05/22 00:38:04;;;;;;;2.95;0.55;;;;;;;;;;5056964;28;20388;-80
2021/05/22 00:40:29;;;;;;;1.17;0.60;;;;;;;;;;5060158;28;20051;-78
2021/05/22 00:42:54;;;;;;;0.68;0.50;;;;;;;;;;5068324;28;20039;-79
2021/05/22 00:45:21;;;;;;;1.00;0.40;;;;;;;;;;5058868;28;20016;-80
2021/05/22 00:47:49;;;;;;;0.52;0.50;;;;;;;;;;5062886;28;20039;-80
2021/05/22 00:50:17;;;;;;;0.93;0.60;;;;;;;;;;5055813;28;20017;-80
2021/05/22 00:52:43;;;;;;;1.15;0.63;;;;;;;;;;5054486;28;20564;-80
2021/05/22 00:55:08;;;;;;;0.65;0.50;;;;;;;;;;5066628;28;20103;-78
2021/05/22 00:57:33;;;;;;;0.90;0.60;;;;;;;;;;5036738;28;20114;-80
2021/05/22 00:59:59;;;;;;;0.75;0.50;;;;;;;;;;5055619;28;20482;-79
2021/05/22 01:02:25;;;;;;;1.52;0.47;;;;;;;;;;5035950;28;20025;-80
2021/05/22 01:04:51;;;;;;;1.75;0.50;;;;;;;;;;5065995;28;20036;-81
2021/05/22 01:07:16;;;;;;;1.20;0.70;;;;;;;;;;5062312;28;20511;-80
2021/05/22 01:09:42;;;;;;;1.25;0.50;;;;;;;;;;5062138;28;20550;-79
2021/05/22 01:12:09;;;;;;;1.83;0.50;;;;;;;;;;5062045;28;20082;-79
2021/05/22 01:14:38;;;;;;;1.70;0.57;;;;;;;;;;5061657;28;20025;-79
2021/05/22 01:17:04;;;;;;;0.73;0.50;;;;;;;;;;5056585;28;20087;-79
2021/05/22 01:19:48;;;;;;;1.08;0.45;;;;;;;;;;5071006;28;20177;-78
2021/05/22 01:22:14;;;;;;;2.67;0.60;;;;;;;;;;5064706;28;20067;-78
2021/05/22 01:24:46;;;;;;;1.48;0.60;;;;;;;;;;5070030;28;20032;-77
2021/05/22 01:27:12;;;;;;;3.13;0.50;;;;;;;;;;5055537;28;20047;-78
2021/05/22 01:29:37;;;;;;;1.52;0.52;;;;;;;;;;5068799;28;20028;-79
2021/05/22 01:32:02;;;;;;;0.70;0.45;;;;;;;;;;5059600;28;20040;-78
2021/05/22 01:34:28;;;;;;;0.55;0.43;;;;;;;;;;5060880;28;20033;-78
2021/05/22 01:36:53;;;;;;;0.28;0.20;;;;;;;;;;5055038;28;21720;-79
2021/05/22 01:39:18;;;;;;;0.22;0.22;;;;;;;;;;5055530;28;20043;-80
2021/05/22 01:41:43;;;;;;;0.35;0.35;;;;;;;;;;5057309;28;20024;-79
2021/05/22 01:44:10;;;;;;;0.77;0.30;;;;;;;;;;5055239;28;20021;-79
2021/05/22 01:46:36;;;;;;;0.20;0.20;;;;;;;;;;5062486;28;20100;-80
2021/05/22 01:49:01;;;;;;;0.20;0.20;;;;;;;;;;5058015;28;20124;-80
2021/05/22 01:51:27;;;;;;;0.47;0.40;;;;;;;;;;5055309;28;20036;-79
2021/05/22 01:53:53;;;;;;;1.65;0.30;;;;;;;;;;5051462;28;20619;-78
2021/05/22 01:56:19;;;;;;;1.02;0.30;;;;;;;;;;5067565;28;20021;-79
2021/05/22 01:58:48;;;;;;;0.30;0.30;;;;;;;;;;5052142;28;20067;-77
2021/05/22 02:01:13;;;;;;;0.32;0.20;;;;;;;;;;5066632;28;20055;-80
2021/05/22 02:03:46;;;;;;;0.28;0.20;;;;;;;;;;5043374;28;20482;-80
2021/05/22 02:06:22;;;;;;;0.80;0.30;;;;;;;;;;5071111;28;20116;-79
2021/05/22 02:08:50;;;;;;;0.28;0.22;;;;;;;;;;5051594;28;20448;-78
2021/05/22 02:11:15;;;;;;;1.60;0.30;;;;;;;;;;5058975;28;20024;-78
2021/05/22 02:13:43;;;;;;;0.60;0.30;;;;;;;;;;5063909;28;20047;-79
2021/05/22 02:16:09;;;;;;;0.65;0.30;;;;;;;;;;5050649;28;20078;-78
2021/05/22 02:18:35;;;;;;;0.47;0.30;;;;;;;;;;5051842;28;20033;-78
2021/05/22 02:21:01;;;;;;;0.30;0.30;;;;;;;;;;5050225;28;20024;-79
2021/05/22 02:23:27;;;;;;;0.45;0.30;;;;;;;;;;5065688;28;21987;-79
2021/05/22 02:25:53;;;;;;;0.13;0.13;;;;;;;;;;5066921;28;20107;-78
2021/05/22 02:28:18;;;;;;;0.28;0.28;;;;;;;;;;5051646;28;20072;-79
2021/05/22 02:30:43;;;;;;;0.40;0.20;;;;;;;;;;5060475;28;20055;-79
2021/05/22 02:33:10;;;;;;;0.25;0.25;;;;;;;;;;5058389;28;20183;-79
2021/05/22 02:35:36;;;;;;;0.13;0.13;;;;;;;;;;5051714;28;20032;-79
2021/05/22 02:38:02;;;;;;;0.20;0.20;;;;;;;;;;5053980;28;20090;-79
2021/05/22 02:40:29;;;;;;;0.20;0.20;;;;;;;;;;5063551;28;20101;-79
2021/05/22 02:43:12;;;;;;;0.28;0.28;;;;;;;;;;5057952;28;20083;-79
2021/05/22 02:45:40;;;;;;;0.40;0.40;;;;;;;;;;5065615;28;20035;-79
2021/05/22 02:48:07;;;;;;;0.50;0.32;;;;;;;;;;5075647;28;20048;-80
2021/05/22 02:50:33;;;;;;;0.52;0.40;;;;;;;;;;5059089;28;20189;-79
2021/05/22 02:52:59;;;;;;;0.38;0.30;;;;;;;;;;5052419;28;20080;-79
2021/05/22 02:55:25;;;;;;;0.40;0.25;;;;;;;;;;5055877;28;20478;-82
2021/05/22 02:57:50;;;;;;;1.30;0.40;;;;;;;;;;5056624;28;20040;-80
2021/05/22 03:00:16;;;;;;;0.32;0.30;;;;;;;;;;5047946;28;20454;-79
2021/05/22 03:02:42;;;;;;;0.47;0.30;;;;;;;;;;5054037;28;20017;-78
2021/05/22 03:05:07;;;;;;;0.55;0.20;;;;;;;;;;5056473;28;20029;-78
2021/05/22 03:07:33;;;;;;;0.65;0.30;;;;;;;;;;5058276;28;20094;-78
2021/05/22 03:09:58;;;;;;;0.30;0.30;;;;;;;;;;5055946;28;20025;-78
2021/05/22 03:12:26;;;;;;;1.40;0.20;;;;;;;;;;5048619;28;20104;-78
2021/05/22 03:14:52;;;;;;;0.60;0.25;;;;;;;;;;5051144;28;20075;-79
2021/05/22 03:17:17;;;;;;;0.30;0.30;;;;;;;;;;5061857;28;20020;-79
2021/05/22 03:19:42;;;;;;;1.25;0.20;;;;;;;;;;5049862;28;20047;-80
2021/05/22 03:22:07;;;;;;;0.45;0.22;;;;;;;;;;5055430;28;20009;-79
2021/05/22 03:24:32;;;;;;;1.33;0.30;;;;;;;;;;5050519;28;20071;-79
2021/05/22 03:26:58;;;;;;;1.30;0.30;;;;;;;;;;5063251;28;20420;-79
2021/05/22 03:29:23;;;;;;;0.85;0.40;;;;;;;;;;5049409;28;20036;-79
2021/05/22 03:31:48;;;;;;;0.40;0.28;;;;;;;;;;5060698;28;20019;-79
2021/05/22 03:34:13;;;;;;;0.20;0.20;;;;;;;;;;5053826;28;20037;-80
2021/05/22 03:36:38;;;;;;;0.95;0.40;;;;;;;;;;5057154;28;20107;-81
2021/05/22 03:39:04;;;;;;;0.30;0.30;;;;;;;;;;5050188;28;20029;-80
2021/05/22 03:41:29;;;;;;;0.30;0.30;;;;;;;;;;5041216;28;20033;-79
2021/05/22 03:43:55;;;;;;;0.25;0.20;;;;;;;;;;5062000;28;20115;-80
2021/05/22 03:46:20;;;;;;;0.30;0.30;;;;;;;;;;5065276;28;20021;-80
2021/05/22 03:48:45;;;;;;;2.40;0.35;;;;;;;;;;5052490;28;20459;-80
2021/05/22 03:51:10;;;;;;;0.50;0.30;;;;;;;;;;5057801;28;20171;-80
2021/05/22 03:53:35;;;;;;;1.15;0.55;;;;;;;;;;5066631;28;20388;-79
2021/05/22 03:56:00;;;;;;;0.73;0.35;;;;;;;;;;5052014;28;20128;-80
2021/05/22 03:58:26;;;;;;;1.60;0.38;;;;;;;;;;5057087;28;20504;-80
2021/05/22 04:00:51;;;;;;;1.70;0.32;;;;;;;;;;5043464;28;20032;-81
2021/05/22 04:03:16;;;;;;;0.30;0.30;;;;;;;;;;5060416;28;20387;-79
2021/05/22 04:05:41;;;;;;;0.30;0.30;;;;;;;;;;5059075;28;20032;-80
2021/05/22 04:08:06;;;;;;;1.52;0.60;;;;;;;;;;5057096;28;20021;-79
2021/05/22 04:10:32;;;;;;;2.05;0.40;;;;;;;;;;5058201;28;20513;-80
2021/05/22 04:12:57;;;;;;;5.07;0.40;;;;;;;;;;5061370;28;20028;-79
2021/05/22 04:15:22;;;;;;;1.05;0.40;;;;;;;;;;5050469;28;20424;-79
2021/05/22 04:17:47;;;;;;;1.08;0.50;;;;;;;;;;5058531;28;20044;-80
2021/05/22 04:20:13;;;;;;;0.50;0.35;;;;;;;;;;5062345;28;20032;-79
2021/05/22 04:22:38;;;;;;;0.43;0.43;;;;;;;;;;5052033;28;20041;-79
2021/05/22 04:25:03;;;;;;;1.00;0.50;;;;;;;;;;5049752;28;20035;-79
2021/05/22 04:27:29;;;;;;;0.65;0.40;;;;;;;;;;5050241;28;20499;-79
2021/05/22 04:29:54;;;;;;;0.93;0.35;;;;;;;;;;5063040;28;20199;-79
2021/05/22 04:32:19;;;;;;;0.40;0.40;;;;;;;;;;5058543;28;20049;-79
2021/05/22 04:34:44;;;;;;;0.40;0.40;;;;;;;;;;5060847;28;20033;-79
2021/05/22 04:37:09;;;;;;;0.73;0.35;;;;;;;;;;5054908;28;20017;-80
2021/05/22 04:39:35;;;;;;;0.57;0.30;;;;;;;;;;5048857;28;20210;-79
2021/05/22 04:42:00;;;;;;;0.80;0.32;;;;;;;;;;5051011;28;20032;-79
2021/05/22 04:44:25;;;;;;;0.63;0.30;;;;;;;;;;5059600;28;20048;-79
2021/05/22 04:46:50;;;;;;;0.40;0.40;;;;;;;;;;5048808;28;20016;-79
2021/05/22 04:49:15;;;;;;;0.63;0.30;;;;;;;;;;5048924;28;20068;-79
2021/05/22 04:51:41;;;;;;;0.35;0.30;;;;;;;;;;5048966;28;20128;-80
2021/05/22 04:54:08;;;;;;;0.95;0.40;;;;;;;;;;5054031;28;20032;-79
2021/05/22 04:56:33;;;;;;;0.68;0.40;;;;;;;;;;5036061;28;20029;-80
2021/05/22 04:58:59;;;;;;;0.35;0.30;;;;;;;;;;5047776;28;20035;-80
2021/05/22 05:01:24;;;;;;;0.80;0.30;;;;;;;;;;5052827;28;20053;-81
2021/05/22 05:03:50;;;;;;;0.45;0.30;;;;;;;;;;5057657;28;20100;-80
2021/05/22 05:06:15;;;;;;;1.38;0.38;;;;;;;;;;5045054;28;20107;-80
2021/05/22 05:08:40;;;;;;;0.40;0.32;;;;;;;;;;5062810;28;20032;-80
2021/05/22 05:11:05;;;;;;;0.30;0.30;;;;;;;;;;5062599;28;20025;-80
2021/05/22 05:13:31;;;;;;;2.72;0.47;;;;;;;;;;5062054;28;20040;-80
2021/05/22 05:15:57;;;;;;;0.43;0.40;;;;;;;;;;5036106;28;20022;-79
2021/05/22 05:18:22;;;;;;;0.85;0.47;;;;;;;;;;5049614;28;20043;-80
2021/05/22 05:20:47;;;;;;;1.48;0.30;;;;;;;;;;5056633;28;20016;-79
2021/05/22 05:23:12;;;;;;;0.93;0.40;;;;;;;;;;5038459;28;20037;-81
2021/05/22 05:25:37;;;;;;;2.47;0.90;;;;;;;;;;5059096;28;20024;-81
2021/05/22 05:28:03;;;;;;;2.65;0.50;;;;;;;;;;5052035;28;20103;-80
2021/05/22 05:30:28;;;;;;;0.40;0.30;;;;;;;;;;5052118;28;20031;-81
2021/05/22 05:32:53;;;;;;;1.27;0.50;;;;;;;;;;5052640;28;20053;-79
2021/05/22 05:35:18;;;;;;;0.30;0.30;;;;;;;;;;5037940;28;20035;-79
2021/05/22 05:37:44;;;;;;;1.77;0.50;;;;;;;;;;5054149;28;20534;-79
2021/05/22 05:40:09;;;;;;;0.85;0.45;;;;;;;;;;5049632;28;20030;-79
2021/05/22 05:42:34;;;;;;;0.75;0.40;;;;;;;;;;5054933;28;20372;-80
2021/05/22 05:45:01;;;;;;;0.60;0.40;;;;;;;;;;5047027;28;20025;-78
2021/05/22 05:47:26;;;;;;;1.98;0.63;;;;;;;;;;5039094;28;20140;-78
2021/05/22 05:49:51;;;;;;;0.85;0.30;;;;;;;;;;5051230;28;20113;-79
2021/05/22 05:52:16;;;;;;;2.38;0.70;;;;;;;;;;5050478;28;20036;-79
2021/05/22 05:54:41;;;;;;;0.32;0.30;;;;;;;;;;5040685;28;20039;-79
2021/05/22 05:57:06;;;;;;;0.95;0.40;;;;;;;;;;5045673;28;20059;-80
2021/05/22 05:59:32;;;;;;;2.95;0.85;;;;;;;;;;5044381;28;20043;-80
2021/05/22 06:01:57;;;;;;;1.73;0.40;;;;;;;;;;5044890;28;20396;-78
2021/05/22 06:04:22;;;;;;;1.52;0.55;;;;;;;;;;5047691;28;20083;-79
2021/05/22 06:06:49;;;;;;;0.50;0.50;;;;;;;;;;5041515;28;20026;-79
2021/05/22 06:09:14;;;;;;;2.33;0.55;;;;;;;;;;5050230;28;20021;-79
2021/05/22 06:11:40;;;;;;;0.63;0.40;;;;;;;;;;5037022;28;20024;-80
2021/05/22 06:14:11;;;;;;;2.25;0.50;;;;;;;;;;5058627;28;20374;-80
2021/05/22 06:16:36;;;;;;;1.73;0.60;;;;;;;;;;5057156;28;20431;-79
2021/05/22 06:19:02;;;;;;;2.53;0.50;;;;;;;;;;5057523;28;20041;-79
2021/05/22 06:21:28;;;;;;;1.38;0.45;;;;;;;;;;5049868;28;20479;-78
2021/05/22 06:23:53;;;;;;;0.50;0.40;;;;;;;;;;5057988;28;20025;-78
2021/05/22 06:26:18;;;;;;;0.82;0.52;;;;;;;;;;5057352;28;20020;-79
2021/05/22 06:28:43;;;;;;;1.15;0.40;;;;;;;;;;5051407;28;20032;-78
2021/05/22 06:31:09;;;;;;;2.00;0.50;;;;;;;;;;5054148;28;20049;-80
2021/05/22 06:33:34;;;;;;;4.30;0.65;;;;;;;;;;5050703;28;20467;-79
2021/05/22 06:35:59;;;;;;;0.45;0.45;;;;;;;;;;5056348;28;20012;-79
2021/05/22 06:38:25;;;;;;;1.13;0.50;;;;;;;;;;5058728;28;20033;-80
2021/05/22 06:40:50;;;;;;;1.58;0.60;;;;;;;;;;5054814;28;20060;-78
2021/05/22 06:43:16;;;;;;;1.02;0.45;;;;;;;;;;5063703;28;20044;-78
2021/05/22 06:45:43;;;;;;;2.47;0.50;;;;;;;;;;5054713;28;20079;-79
2021/05/22 06:48:09;;;;;;;1.70;0.50;;;;;;;;;;5050937;28;20024;-79
2021/05/22 06:50:35;;;;;;;1.38;0.32;;;;;;;;;;5049853;28;20529;-79
2021/05/22 06:53:00;;;;;;;0.75;0.30;;;;;;;;;;5053804;28;20385;-80
2021/05/22 06:55:26;;;;;;;1.40;0.30;;;;;;;;;;5050105;28;20112;-80
2021/05/22 06:57:51;;;;;;;2.22;0.30;;;;;;;;;;5050136;28;20283;-79
2021/05/22 07:00:16;;;;;;;1.70;0.70;;;;;;;;;;5055779;28;20082;-79
2021/05/22 07:02:41;;;;;;;2.00;0.43;;;;;;;;;;5053117;28;20084;-79
2021/05/22 07:05:07;;;;;;;1.00;0.50;;;;;;;;;;5063895;28;20027;-79
2021/05/22 07:07:32;;;;;;;3.08;0.63;;;;;;;;;;5055024;28;20290;-78
2021/05/22 07:09:57;;;;;;;2.35;0.70;;;;;;;;;;5058631;28;20032;-80
2021/05/22 07:12:23;;;;;;;1.63;0.55;;;;;;;;;;5057988;28;20023;-82
2021/05/22 07:14:49;;;;;;;1.80;0.50;;;;;;;;;;5056728;28;20041;-78
2021/05/22 07:17:14;;;;;;;2.55;0.85;;;;;;;;;;5035788;28;20036;-74
2021/05/22 07:19:39;;;;;;;3.75;0.60;;;;;;;;;;5055022;28;20028;-74
2021/05/22 07:22:05;;;;;;;2.55;0.65;;;;;;;;;;5062478;28;20485;-74
2021/05/22 07:24:30;;;;;;;3.67;0.88;;;;;;;;;;5050270;28;20032;-74
2021/05/22 07:26:56;;;;;;;2.10;0.93;;;;;;;;;;5057571;28;20027;-73
2021/05/22 07:29:21;;;;;;;2.58;1.10;;;;;;;;;;5053727;28;20395;-73
2021/05/22 07:31:47;;;;;;;5.72;0.85;;;;;;;;;;5030476;28;20025;-75
2021/05/22 07:34:12;;;;;;;3.15;0.88;;;;;;;;;;5050173;28;20045;-74
2021/05/22 07:36:38;;;;;;;2.42;0.75;;;;;;;;;;5050198;28;20085;-77
2021/05/22 07:39:04;;;;;;;4.70;1.23;;;;;;;;;;5056003;28;20045;-76
2021/05/22 07:41:29;;;;;;;5.22;0.85;;;;;;;;;;5045429;28;20048;-77
2021/05/22 07:43:55;;;;;;;3.80;1.00;;;;;;;;;;5056162;28;20021;-76
2021/05/22 07:46:20;;;;;;;6.72;0.80;;;;;;;;;;5053534;28;20025;-75
2021/05/22 07:48:45;;;;;;;6.22;1.10;;;;;;;;;;5040009;28;20028;-75
2021/05/22 07:51:10;;;;;;;2.65;0.68;;;;;;;;;;5047219;28;20053;-75
2021/05/22 07:53:35;;;;;;;4.18;1.00;;;;;;;;;;5049152;28;20037;-75
2021/05/22 07:56:01;;;;;;;2.83;0.73;;;;;;;;;;5061406;28;20024;-75
2021/05/22 07:58:26;;;;;;;2.15;0.90;;;;;;;;;;5049024;28;20029;-72
2021/05/22 08:00:51;;;;;;;8.23;1.30;;;;;;;;;;5053785;28;20036;-75
2021/05/22 08:03:16;;;;;;;4.38;0.90;;;;;;;;;;5056484;28;20392;-73
2021/05/22 08:05:41;;;;;;;3.97;1.33;;;;;;;;;;5058203;28;20070;-74
2021/05/22 08:08:07;;;;;;;6.80;0.88;;;;;;;;;;5058416;28;20086;-75
2021/05/22 08:10:32;;;;;;;3.60;0.68;;;;;;;;;;5056306;28;20036;-74
2021/05/22 08:12:57;;;;;;;3.97;1.02;;;;;;;;;;5047337;28;20065;-74
2021/05/22 08:15:22;;;;;;;5.93;0.90;;;;;;;;;;5050235;28;20020;-78
2021/05/22 08:17:48;;;;;;;3.75;0.80;;;;;;;;;;5057658;28;20517;-78
2021/05/22 08:20:13;;;;;;;3.00;0.73;;;;;;;;;;5043188;28;20033;-80
2021/05/22 08:22:38;;;;;;;3.28;0.60;;;;;;;;;;5030050;28;20435;-78
2021/05/22 08:25:07;;;;;;;4.93;0.90;;;;;;;;;;5051875;28;20021;-80
2021/05/22 08:27:32;;;;;;;4.32;1.13;;;;;;;;;;5047779;28;20039;-79
2021/05/22 08:29:57;;;;;;;3.22;0.80;;;;;;;;;;5054767;28;20024;-79
2021/05/22 08:32:23;;;;;;;1.83;0.88;;;;;;;;;;5049654;28;20041;-78
2021/05/22 08:34:48;;;;;;;2.25;0.90;;;;;;;;;;5050871;28;20521;-73
2021/05/22 08:37:14;;;;;;;2.85;0.80;;;;;;;;;;5047534;28;20021;-75
2021/05/22 08:39:43;;;;;;;4.75;0.90;;;;;;;;;;5051262;28;20037;-73
2021/05/22 08:42:09;;;;;;;;;;;;;;;;;;5048960;28;20013;-73
2021/05/22 08:44:38;;;;;;;2.13;0.57;;;;;;;;;;5058724;28;19912;-73
2021/05/22 08:47:03;;;;;;;4.90;1.13;;;;;;;;;;5050546;28;20309;-74
2021/05/22 08:49:40;;;;;;;3.83;0.65;;;;;;;;;;5048757;28;20475;-75
2021/05/22 08:52:05;;;;;;;3.03;0.80;;;;;;;;;;5051775;28;20036;-75
2021/05/22 08:54:31;;;;;;;2.92;0.80;;;;;;;;;;5055349;28;20024;-74
2021/05/22 08:56:56;;;;;;;4.53;1.10;;;;;;;;;;5054489;28;20026;-74
2021/05/22 08:59:21;;;;;;;5.45;0.88;;;;;;;;;;5056660;28;20037;-74
2021/05/22 09:01:46;;;;;;;2.35;1.10;;;;;;;;;;5059078;28;20052;-73
2021/05/22 09:04:11;;;;;;;3.10;0.80;;;;;;;;;;5059969;28;20074;-73
2021/05/22 09:06:56;;;;;;;3.70;0.77;;;;;;;;;;5039865;28;20032;-74
2021/05/22 09:09:36;;;;;;;2.38;0.60;;;;;;;;;;5042730;28;20126;-73
2021/05/22 09:12:01;;;;;;;3.95;1.00;;;;;;;;;;5057390;28;20032;-73
2021/05/22 09:14:44;;;;;;;2.05;0.65;;;;;;;;;;5066958;28;20028;-73
2021/05/22 09:17:10;;;;;;;3.00;0.68;;;;;;;;;;5065079;28;20055;-74
2021/05/22 09:19:36;;;;;;;3.17;0.70;;;;;;;;;;5064234;28;20040;-73
2021/05/22 09:22:17;;;;;;;2.05;0.98;;;;;;;;;;5064949;28;20681;-73
2021/05/22 09:25:04;;;;;;;5.88;0.80;;;;;;;;;;5045742;28;20061;-73
2021/05/22 09:27:30;;;;;;;3.05;0.60;;;;;;;;;;5057913;28;20086;-74
2021/05/22 09:29:55;;;;;;;2.03;0.50;;;;;;;;;;5062250;28;20482;-74
2021/05/22 09:32:20;;;;;;;2.28;0.90;;;;;;;;;;5051068;28;20041;-75
2021/05/22 09:34:48;;;;;;;3.72;0.77;;;;;;;;;;5033957;28;20029;-74
2021/05/22 09:37:13;;;;;;;5.32;0.57;;;;;;;;;;5061774;28;20154;-74
2021/05/22 09:39:45;;;;;;;3.13;0.80;;;;;;;;;;5058058;28;20036;-76
2021/05/22 09:42:10;;;;;;;5.47;0.90;;;;;;;;;;5051059;28;20017;-75
2021/05/22 09:44:35;;;;;;;3.10;0.70;;;;;;;;;;5052277;28;20384;-74
2021/05/22 09:47:02;;;;;;;3.08;0.77;;;;;;;;;;5064742;28;20067;-75
2021/05/22 09:49:29;;;;;;;2.53;0.73;;;;;;;;;;5053900;28;20431;-74
2021/05/22 09:51:57;;;;;;;2.28;0.85;;;;;;;;;;5047676;28;20025;-74
2021/05/22 09:54:41;;;;;;;2.78;0.60;;;;;;;;;;5049725;28;20029;-74
2021/05/22 09:57:07;;;;;;;3.75;0.90;;;;;;;;;;5043465;28;20067;-74
2021/05/22 09:59:32;;;;;;;5.03;0.70;;;;;;;;;;5046237;28;20484;-74
2021/05/22 10:01:58;;;;;;;2.60;0.57;;;;;;;;;;5044171;28;20075;-74
2021/05/22 10:04:24;;;;;;;2.83;0.70;;;;;;;;;;5045593;28;20116;-75
2021/05/22 10:06:49;;;;;;;3.00;0.70;;;;;;;;;;5044755;28;20151;-75
2021/05/22 10:09:16;;;;;;;2.08;0.80;;;;;;;;;;5049214;28;20024;-74
2021/05/22 10:12:00;;;;;;;2.28;0.73;;;;;;;;;;5043357;28;20033;-75
2021/05/22 10:14:27;;;;;;;3.05;0.65;;;;;;;;;;5042791;28;20408;-74
2021/05/22 10:16:52;;;;;;;3.10;0.80;;;;;;;;;;5044237;28;20523;-73
2021/05/22 10:19:18;;;;;;;5.05;0.68;;;;;;;;;;5042659;28;20058;-75
2021/05/22 10:21:43;;;;;;;1.90;0.55;;;;;;;;;;5048062;28;20051;-76
2021/05/22 10:24:09;;;;;;;2.67;0.63;;;;;;;;;;5047808;28;20032;-75
2021/05/22 10:26:35;;;;;;;2.30;0.52;;;;;;;;;;5049218;28;20418;-74
2021/05/22 10:29:00;;;;;;;2.05;0.70;;;;;;;;;;5030262;28;20078;-74
2021/05/22 10:31:26;;;;;;;2.85;0.85;;;;;;;;;;5033134;28;20078;-75
2021/05/22 10:33:52;;;;;;;3.65;0.80;;;;;;;;;;5049141;28;20142;-75
2021/05/22 10:36:37;;;;;;;2.97;0.70;;;;;;;;;;5061105;28;20066;-75
2021/05/22 10:39:02;;;;;;;3.22;0.95;;;;;;;;;;5060475;28;20310;-75
2021/05/22 10:41:37;;;;;;;2.90;0.50;;;;;;;;;;5056243;28;20375;-74
2021/05/22 10:44:02;;;;;;;2.20;0.52;;;;;;;;;;5056142;28;20025;-74
2021/05/22 10:46:27;;;;;;;1.92;0.70;;;;;;;;;;5045293;28;20044;-75
2021/05/22 10:48:54;;;;;;;1.42;0.50;;;;;;;;;;5060146;28;20020;-74
2021/05/22 10:51:27;;;;;;;2.70;0.68;;;;;;;;;;5057023;28;20491;-74
2021/05/22 10:53:53;;;;;;;1.83;0.60;;;;;;;;;;5047498;28;21935;-74
2021/05/22 10:56:18;;;;;;;3.83;0.73;;;;;;;;;;5048775;28;20029;-74
2021/05/22 10:58:59;;;;;;;3.67;0.80;;;;;;;;;;5041274;28;20025;-74
2021/05/22 11:01:28;;;;;;;3.00;0.70;;;;;;;;;;5044097;28;20036;-73
2021/05/22 11:03:53;;;;;;;;;;;;;;;;;;5043596;28;20013;-74
2021/05/22 11:06:38;;;;;;;3.20;0.70;;;;;;;;;;5041177;28;19908;-75
2021/05/22 11:09:23;;;;;;;2.22;0.80;;;;;;;;;;5040505;28;20022;-74
2021/05/22 11:11:48;;;;;;;4.07;0.65;;;;;;;;;;5043074;28;20033;-74
2021/05/22 11:14:32;;;;;;;3.45;0.47;;;;;;;;;;5052173;28;20743;-73
2021/05/22 11:16:57;;;;;;;3.25;0.55;;;;;;;;;;5050026;28;20385;-75
2021/05/22 11:19:22;;;;;;;3.75;0.77;;;;;;;;;;5049113;28;20041;-73
2021/05/22 11:22:07;;;;;;;2.00;0.80;;;;;;;;;;5067785;28;20100;-73
2021/05/22 11:24:52;;;;;;;1.33;0.82;;;;;;;;;;5053597;28;20801;-74
2021/05/22 11:27:18;;;;;;;2.28;0.50;;;;;;;;;;5051353;28;20066;-74
2021/05/22 11:29:54;;;;;;;1.23;0.60;;;;;;;;;;5054960;28;20096;-75
2021/05/22 11:32:38;;;;;;;0.73;0.50;;;;;;;;;;5055112;28;20064;-74
2021/05/22 11:35:23;;;;;;;1.77;0.60;;;;;;;;;;5051494;28;20031;-74
2021/05/22 11:37:48;;;;;;;0.98;0.40;;;;;;;;;;5048175;28;20017;-75
2021/05/22 11:40:33;;;;;;;1.58;0.80;;;;;;;;;;5057679;28;20044;-75
2021/05/22 11:42:58;;;;;;;2.17;0.70;;;;;;;;;;5046091;28;20021;-73
2021/05/22 11:45:24;;;;;;;1.07;0.57;;;;;;;;;;5050737;28;20036;-74
2021/05/22 11:47:49;;;;;;;4.03;0.70;;;;;;;;;;5054676;28;20409;-79
2021/05/22 11:50:24;;;;;;;3.40;0.65;;;;;;;;;;5056046;28;20055;-78
2021/05/22 11:52:50;;;;;;;1.52;0.63;;;;;;;;;;5056920;28;20013;-77
2021/05/22 11:55:17;;;;;;;2.35;0.50;;;;;;;;;;5050526;28;20097;-77
2021/05/22 11:57:42;;;;;;;1.95;0.65;;;;;;;;;;5050117;28;20013;-78
2021/05/22 12:00:07;;;;;;;2.42;0.70;;;;;;;;;;5054780;28;20597;-76
2021/05/22 12:02:36;;;;;;;0.73;0.52;;;;;;;;;;5064377;28;20467;-77
2021/05/22 12:05:02;;;;;;;1.75;0.60;;;;;;;;;;5055993;28;20024;-72
2021/05/22 12:07:27;;;;;;;2.05;0.57;;;;;;;;;;5056376;28;20029;-72
2021/05/22 12:09:52;;;;;;;2.63;0.68;;;;;;;;;;5035977;28;20031;-72
2021/05/22 12:12:27;;;;;;;1.77;0.50;;;;;;;;;;5049172;28;20025;-73
2021/05/22 12:14:53;;;;;;;2.28;0.60;;;;;;;;;;5049363;28;21060;-72
2021/05/22 12:17:19;;;;;;;1.35;0.57;;;;;;;;;;5056382;28;20016;-74
2021/05/22 12:19:45;;;;;;;3.47;0.50;;;;;;;;;;5063041;28;20515;-73
2021/05/22 12:22:11;;;;;;;3.72;0.63;;;;;;;;;;5036828;28;20028;-73
2021/05/22 12:24:38;;;;;;;2.08;0.57;;;;;;;;;;5059149;28;20549;-72
2021/05/22 12:27:04;;;;;;;1.88;0.52;;;;;;;;;;5047984;28;20024;-72
2021/05/22 12:29:30;;;;;;;2.88;0.70;;;;;;;;;;5040922;28;20492;-72
2021/05/22 12:32:00;;;;;;;1.25;0.50;;;;;;;;;;5053920;28;20025;-73
2021/05/22 12:34:32;;;;;;;3.22;0.80;;;;;;;;;;5036255;28;20440;-72
2021/05/22 12:37:00;;;;;;;2.75;0.75;;;;;;;;;;5053881;28;20120;-72
2021/05/22 12:39:32;;;;;;;1.67;0.50;;;;;;;;;;5055952;28;20522;-72
2021/05/22 12:41:57;;;;;;;1.13;0.50;;;;;;;;;;5055925;28;20040;-71
2021/05/22 12:44:23;;;;;;;2.85;0.60;;;;;;;;;;5047485;28;20017;-72
2021/05/22 12:46:55;;;;;;;2.35;0.50;;;;;;;;;;5048909;28;20116;-72
2021/05/22 12:49:20;;;;;;;1.23;0.47;;;;;;;;;;5046940;28;20665;-72
2021/05/22 12:51:57;;;;;;;3.30;0.50;;;;;;;;;;5051416;28;20036;-73
2021/05/22 12:54:23;;;;;;;2.15;0.57;;;;;;;;;;5057961;28;20433;-72
2021/05/22 12:57:11;;;;;;;2.10;0.68;;;;;;;;;;5057796;28;20025;-72
2021/05/22 12:59:37;;;;;;;2.33;0.68;;;;;;;;;;5044794;28;20179;-74
2021/05/22 13:02:16;;;;;;;3.38;0.52;;;;;;;;;;5060801;28;20457;-73
2021/05/22 13:04:43;;;;;;;3.95;0.70;;;;;;;;;;5046488;28;20025;-72
2021/05/22 13:07:08;;;;;;;4.53;1.23;;;;;;;;;;5049004;28;20033;-72
2021/05/22 13:09:34;;;;;;;3.05;0.80;;;;;;;;;;5045995;28;20032;-72
2021/05/22 13:12:00;;;;;;;2.15;0.50;;;;;;;;;;5047939;28;20021;-71
2021/05/22 13:14:44;;;;;;;2.28;1.02;;;;;;;;;;5048266;28;20017;-74
2021/05/22 13:17:09;;;;;;;1.90;0.80;;;;;;;;;;5050865;28;20032;-72
2021/05/22 13:19:45;;;;;;;2.65;0.60;;;;;;;;;;5067866;28;20028;-72
2021/05/22 13:22:19;;;;;;;1.75;0.57;;;;;;;;;;5054934;28;20108;-71
2021/05/22 13:24:56;;;;;;;1.02;0.50;;;;;;;;;;5057005;28;20060;-70
2021/05/22 13:27:21;;;;;;;2.42;0.70;;;;;;;;;;5062135;28;20024;-72
2021/05/22 13:29:53;;;;;;;3.28;0.88;;;;;;;;;;5047691;28;20413;-71
2021/05/22 13:32:18;;;;;;;1.13;0.70;;;;;;;;;;5046665;28;20053;-72
2021/05/22 13:34:43;;;;;;;2.25;0.50;;;;;;;;;;5061183;28;20048;-73
2021/05/22 13:37:08;;;;;;;2.60;0.70;;;;;;;;;;5056641;28;20040;-71
2021/05/22 13:39:34;;;;;;;1.53;0.60;;;;;;;;;;5051349;28;20094;-71
2021/05/22 13:42:00;;;;;;;1.70;0.63;;;;;;;;;;5059208;28;20712;-72
2021/05/22 13:44:27;;;;;;;2.25;0.82;;;;;;;;;;5053436;28;20021;-74
2021/05/22 13:46:52;;;;;;;2.05;0.50;;;;;;;;;;5058713;28;20020;-72
2021/05/22 13:49:18;;;;;;;1.83;0.75;;;;;;;;;;5065812;28;20421;-72
2021/05/22 13:51:45;;;;;;;3.72;0.70;;;;;;;;;;5065624;28;20067;-72
2021/05/22 13:54:11;;;;;;;3.50;0.80;;;;;;;;;;5051935;28;20124;-72
2021/05/22 13:56:37;;;;;;;2.33;0.82;;;;;;;;;;5052574;28;20029;-73
2021/05/22 13:59:02;;;;;;;2.37;0.60;;;;;;;;;;5051201;28;20102;-73
2021/05/22 14:01:29;;;;;;;3.70;0.90;;;;;;;;;;5066341;28;20267;-71
2021/05/22 14:03:55;;;;;;;1.52;0.63;;;;;;;;;;5053620;28;20013;-72
2021/05/22 14:06:20;;;;;;;2.78;0.70;;;;;;;;;;5052059;28;20055;-72
2021/05/22 14:08:46;;;;;;;1.70;0.60;;;;;;;;;;5058120;28;20067;-73
2021/05/22 14:11:11;;;;;;;2.13;0.93;;;;;;;;;;5063907;28;20091;-73
2021/05/22 14:13:36;;;;;;;2.55;0.45;;;;;;;;;;5066049;28;20098;-72
2021/05/22 14:16:01;;;;;;;1.77;0.60;;;;;;;;;;5070615;28;20111;-74
2021/05/22 14:18:28;;;;;;;2.47;0.50;;;;;;;;;;5058609;28;20310;-72
2021/05/22 14:20:56;;;;;;;1.13;0.52;;;;;;;;;;5062250;28;20028;-73
2021/05/22 14:23:21;;;;;;;2.08;0.80;;;;;;;;;;5056863;28;20121;-73
2021/05/22 14:25:50;;;;;;;3.10;0.82;;;;;;;;;;5051170;28;20013;-72
2021/05/22 14:28:18;;;;;;;2.17;0.80;;;;;;;;;;5055916;28;20017;-72
2021/05/22 14:30:43;;;;;;;4.05;0.80;;;;;;;;;;5058659;28;20032;-72
2021/05/22 14:33:08;;;;;;;2.33;0.47;;;;;;;;;;5062010;28;20045;-71
2021/05/22 14:35:34;;;;;;;1.42;0.50;;;;;;;;;;5052777;28;20471;-72
2021/05/22 14:37:59;;;;;;;1.52;0.52;;;;;;;;;;5050057;28;20025;-72
2021/05/22 14:40:24;;;;;;;1.85;0.55;;;;;;;;;;5058447;28;20109;-71
2021/05/22 14:42:50;;;;;;;2.20;0.75;;;;;;;;;;5049544;28;20029;-72